Time;durP1;ratioP1;P1;durP2;ratioP2;P2;SDS_P1;SDS_P2;PMS_P1;PMS_P2;Temp;Humidity;BMP_temperature;BMP_pressure;BME280_temperature;BME280_humidity;BME280_pressure;Samples;Min_cycle;Max_cycle;Signal;HPM_P1;HPM_P2
2023/07/02 00:02:16;;;;;;;33.90;20.70;;;;;;;21.00;81.89;98815.40;108639;1254;71288;-75
2023/07/02 00:04:45;;;;;;;9.40;8.40;;;;;;;20.96;82.06;98813.96;107198;1259;71233;-73
2023/07/02 00:07:12;;;;;;;7.60;6.90;;;;;;;20.92;82.25;98813.70;105985;1257;60519;-74
2023/07/02 00:09:39;;;;;;;7.00;6.40;;;;;;;20.92;82.46;98816.95;106061;1257;60424;-75
2023/07/02 00:12:06;;;;;;;7.70;7.00;;;;;;;20.96;82.37;98811.52;105946;1254;74604;-75
2023/07/02 00:14:33;;;;;;;8.20;7.40;;;;;;;20.96;82.44;98814.07;106020;1254;70401;-75
2023/07/02 00:17:00;;;;;;;7.40;6.70;;;;;;;20.91;82.56;98810.15;105906;1257;60332;-75
2023/07/02 00:19:27;;;;;;;7.20;6.50;;;;;;;20.88;82.69;98810.60;105989;1257;62042;-76
2023/07/02 00:21:55;;;;;;;7.80;7.10;;;;;;;20.90;82.74;98808.08;105938;1257;60829;-76
2023/07/02 00:24:21;;;;;;;11.00;7.80;;;;;;;20.91;82.73;98806.52;106052;1257;74279;-75
2023/07/02 00:26:48;;;;;;;7.90;7.10;;;;;;;20.88;83.04;98805.64;106130;1255;70234;-74
2023/07/02 00:29:15;;;;;;;7.70;7.00;;;;;;;20.84;83.09;98808.09;106944;1254;72681;-74
2023/07/02 00:31:42;;;;;;;7.50;6.70;;;;;;;20.85;83.25;98810.15;109242;1254;60440;-75
2023/07/02 00:34:08;;;;;;;7.60;6.80;;;;;;;20.90;83.13;98810.67;107359;1254;59553;-75
2023/07/02 00:36:36;;;;;;;8.60;7.80;;;;;;;20.89;83.21;98811.52;105966;1257;73773;-75
2023/07/02 00:39:03;;;;;;;8.10;7.30;;;;;;;20.82;83.46;98815.48;105809;1254;69948;-74
2023/07/02 00:41:30;;;;;;;7.70;6.90;;;;;;;20.80;83.59;98814.11;106089;1253;72854;-75
2023/07/02 00:43:57;;;;;;;7.60;6.90;;;;;;;20.85;83.48;98819.20;105994;1254;61792;-75
2023/07/02 00:46:25;;;;;;;8.20;7.20;;;;;;;20.84;83.39;98818.13;105823;1260;60464;-75
2023/07/02 00:48:53;;;;;;;8.20;7.40;;;;;;;20.80;83.57;98812.21;106080;1257;73531;-74
2023/07/02 00:51:24;;;;;;;8.10;7.30;;;;;;;20.78;83.68;98814.36;106169;1257;69504;-75
2023/07/02 00:53:52;;;;;;;8.10;7.30;;;;;;;20.83;83.50;98809.27;105956;1257;71404;-76
2023/07/02 00:56:19;;;;;;;7.90;7.10;;;;;;;20.88;83.39;98811.21;106105;1252;60408;-76
2023/07/02 00:58:50;;;;;;;8.90;8.00;;;;;;;20.87;83.43;98811.08;106167;1260;60622;-76
2023/07/02 01:01:25;;;;;;;8.80;8.00;;;;;;;20.83;83.47;98807.91;108519;1254;72655;-76
2023/07/02 01:04:02;;;;;;;8.50;7.70;;;;;;;20.82;83.48;98807.91;107565;1259;69116;-74
2023/07/02 01:06:31;;;;;;;8.20;7.40;;;;;;;20.89;83.30;98815.73;105844;1257;72695;-75
2023/07/02 01:08:59;;;;;;;8.80;8.00;;;;;;;20.93;83.26;98817.83;105799;1260;60517;-74
2023/07/02 01:11:33;;;;;;;9.40;8.40;;;;;;;20.88;83.43;98818.59;105903;1257;60386;-73
2023/07/02 01:14:15;;;;;;;8.90;8.20;;;;;;;20.82;83.59;98808.71;106021;1255;73874;-73
2023/07/02 01:16:43;;;;;;;9.00;7.70;;;;;;;20.80;83.92;98804.27;106033;1260;70118;-71
2023/07/02 01:19:58;;;;;;;7.90;7.20;;;;;;;20.86;83.89;98805.52;105900;1257;72025;-75
2023/07/02 01:22:27;;;;;;;9.10;8.10;;;;;;;20.85;84.08;98806.48;105590;1266;60520;-74
2023/07/02 01:24:54;;;;;;;10.40;8.30;;;;;;;20.81;84.35;98808.66;105442;1261;60676;-75
2023/07/02 01:27:21;;;;;;;8.30;7.50;;;;;;;20.78;84.59;98811.55;105764;1259;73692;-74
2023/07/02 01:29:51;;;;;;;8.10;7.20;;;;;;;20.78;84.89;98809.54;106733;1259;67857;-74
2023/07/02 01:32:18;;;;;;;9.10;8.20;;;;;;;20.75;85.15;98808.83;108918;1253;71341;-76
2023/07/02 01:34:48;;;;;;;8.90;8.00;;;;;;;20.71;85.16;98809.66;106077;1255;60427;-73
2023/07/02 01:37:16;;;;;;;9.20;8.40;;;;;;;20.67;85.38;98803.80;106097;1254;60529;-73
2023/07/02 01:39:43;;;;;;;8.10;7.30;;;;;;;20.71;85.38;98803.83;105951;1254;73953;-72
2023/07/02 01:42:15;;;;;;;9.10;8.10;;;;;;;20.74;85.40;98803.52;105891;1254;70539;-73
2023/07/02 01:44:47;;;;;;;9.40;8.40;;;;;;;20.69;85.60;98798.41;105877;1255;72512;-76
2023/07/02 01:47:15;;;;;;;7.80;7.00;;;;;;;20.64;85.73;98796.91;106083;1254;61725;-75
2023/07/02 01:49:42;;;;;;;8.00;7.20;;;;;;;20.65;85.81;98796.87;105792;1269;60418;-74
2023/07/02 01:52:09;;;;;;;11.60;7.80;;;;;;;20.68;85.72;98801.37;106000;1257;73842;-77
2023/07/02 01:54:36;;;;;;;10.10;8.10;;;;;;;20.63;85.96;98805.01;106086;1255;69071;-77
2023/07/02 01:57:03;;;;;;;8.20;7.50;;;;;;;20.58;86.14;98805.20;106455;1254;72464;-77
2023/07/02 01:59:31;;;;;;;9.20;8.00;;;;;;;20.61;86.20;98807.04;108850;1254;61852;-75
2023/07/02 02:01:58;;;;;;;8.80;7.90;;;;;;;20.64;86.26;98808.46;109152;1254;58757;-75
2023/07/02 02:04:25;;;;;;;9.80;8.70;;;;;;;20.61;86.37;98808.00;106423;1259;72553;-76
2023/07/02 02:06:53;;;;;;;8.10;7.30;;;;;;;20.56;86.53;98806.64;106209;1254;70321;-75
2023/07/02 02:09:20;;;;;;;8.20;7.40;;;;;;;20.59;86.65;98805.66;106104;1254;72535;-74
2023/07/02 02:11:48;;;;;;;8.50;7.80;;;;;;;20.61;86.44;98805.64;106106;1255;62053;-75
2023/07/02 02:14:16;;;;;;;8.80;7.90;;;;;;;20.63;86.44;98808.98;106127;1254;60862;-77
2023/07/02 02:16:45;;;;;;;8.70;8.00;;;;;;;20.59;86.40;98806.42;106191;1252;72480;-74
2023/07/02 02:19:13;;;;;;;8.30;7.40;;;;;;;20.57;86.54;98810.05;107081;1257;70529;-75
2023/07/02 02:21:40;;;;;;;8.80;8.10;;;;;;;20.61;86.51;98806.60;105903;1257;71408;-76
2023/07/02 02:24:07;;;;;;;9.20;8.30;;;;;;;20.63;86.42;98805.34;106388;1252;60596;-76
2023/07/02 02:26:35;;;;;;;11.80;8.90;;;;;;;20.64;86.48;98805.83;109164;1253;58744;-76
2023/07/02 02:29:03;;;;;;;8.90;8.10;;;;;;;20.64;86.46;98806.14;107606;1254;72394;-73
2023/07/02 02:31:31;;;;;;;9.40;8.30;;;;;;;20.67;86.47;98808.49;109304;1254;70211;-75
2023/07/02 02:33:59;;;;;;;9.50;8.70;;;;;;;20.74;86.19;98812.33;107007;1255;71796;-76
2023/07/02 02:36:26;;;;;;;10.30;8.60;;;;;;;20.77;86.01;98808.46;106012;1256;60400;-76
2023/07/02 02:38:52;;;;;;;9.70;8.60;;;;;;;20.71;86.03;98805.99;106072;1257;60331;-74
2023/07/02 02:41:20;;;;;;;8.90;8.20;;;;;;;20.69;86.18;98808.40;106033;1254;72547;-74
2023/07/02 02:43:49;;;;;;;9.20;8.10;;;;;;;20.76;86.06;98815.20;106123;1254;68776;-76
2023/07/02 02:46:21;;;;;;;8.40;7.60;;;;;;;20.82;85.62;98816.23;106086;1254;72556;-74
2023/07/02 02:48:49;;;;;;;9.10;8.30;;;;;;;20.79;85.55;98807.78;105894;1260;60521;-76
2023/07/02 02:51:16;;;;;;;10.60;8.90;;;;;;;20.75;85.71;98808.56;105804;1260;60342;-75
2023/07/02 02:53:42;;;;;;;9.50;8.50;;;;;;;20.75;85.79;98810.55;105949;1257;73838;-75
2023/07/02 02:56:10;;;;;;;10.40;8.50;;;;;;;20.73;85.85;98807.40;105742;1254;70295;-74
2023/07/02 02:58:39;;;;;;;10.30;9.20;;;;;;;20.70;85.99;98808.30;106369;1255;72713;-76
2023/07/02 03:01:10;;;;;;;13.30;9.20;;;;;;;20.68;85.90;98809.63;107356;1253;60463;-77
2023/07/02 03:03:39;;;;;;;8.50;7.60;;;;;;;20.71;85.85;98805.09;106016;1255;60344;-78
2023/07/02 03:06:06;;;;;;;9.10;8.20;;;;;;;20.77;85.62;98807.77;106754;1254;73829;-77
2023/07/02 03:08:33;;;;;;;10.00;9.10;;;;;;;20.75;85.47;98810.55;109022;1256;69035;-77
2023/07/02 03:11:00;;;;;;;9.40;8.50;;;;;;;20.73;85.63;98806.80;108714;1254;71427;-79
2023/07/02 03:13:26;;;;;;;9.50;8.50;;;;;;;20.75;85.40;98806.61;105822;1254;60525;-77
2023/07/02 03:15:53;;;;;;;10.20;9.00;;;;;;;20.80;85.09;98801.69;106432;1252;60443;-77
2023/07/02 03:18:20;;;;;;;19.00;15.50;;;;;;;20.80;85.11;98800.02;106447;1259;73651;-74
2023/07/02 03:20:47;;;;;;;12.40;11.10;;;;;;;20.78;85.17;98792.55;106207;1254;70299;-73
2023/07/02 03:23:15;;;;;;;11.60;8.90;;;;;;;20.79;85.30;98792.23;106009;1254;72893;-75
2023/07/02 03:25:43;;;;;;;9.50;8.50;;;;;;;20.86;85.00;98794.83;106078;1251;62003;-76
2023/07/02 03:28:09;;;;;;;9.20;8.30;;;;;;;20.91;84.68;98790.05;105888;1254;60597;-75
2023/07/02 03:30:36;;;;;;;9.80;8.90;;;;;;;20.91;84.57;98789.30;107774;1257;72906;-74
2023/07/02 03:33:03;;;;;;;10.70;9.60;;;;;;;20.90;84.55;98794.03;107353;1253;69400;-73
2023/07/02 03:35:31;;;;;;;11.10;9.60;;;;;;;20.90;84.48;98795.61;105963;1254;72861;-75
2023/07/02 03:37:58;;;;;;;27.60;23.90;;;;;;;20.96;84.20;98797.33;105800;1260;61889;-76
2023/07/02 03:40:25;;;;;;;10.10;9.20;;;;;;;20.99;84.08;98796.33;105944;1253;60450;-75
2023/07/02 03:42:51;;;;;;;10.40;9.50;;;;;;;21.00;84.06;98796.48;106053;1256;60299;-75
2023/07/02 03:45:18;;;;;;;10.90;9.80;;;;;;;20.96;84.02;98798.90;106002;1254;70159;-74
2023/07/02 03:47:45;;;;;;;10.40;9.40;;;;;;;20.92;84.09;98800.27;105727;1254;72477;-72
2023/07/02 03:50:12;;;;;;;12.90;8.80;;;;;;;20.95;84.02;98799.75;106124;1254;61806;-71
2023/07/02 03:52:39;;;;;;;10.70;9.70;;;;;;;21.01;83.96;98797.04;106059;1256;60545;-72
2023/07/02 03:55:07;;;;;;;9.90;9.00;;;;;;;20.99;83.93;98794.88;105700;1254;73841;-72
2023/07/02 03:57:34;;;;;;;11.90;9.80;;;;;;;20.99;83.95;98797.02;106001;1255;70387;-72
2023/07/02 04:00:00;;;;;;;10.20;9.20;;;;;;;21.02;83.88;98796.35;107161;1254;73020;-74
2023/07/02 04:02:27;;;;;;;11.00;9.10;;;;;;;21.11;83.64;98788.95;107212;1253;60278;-73
2023/07/02 04:04:54;;;;;;;11.10;10.10;;;;;;;21.21;83.37;98788.41;106651;1253;60681;-75
2023/07/02 04:07:21;;;;;;;11.40;10.10;;;;;;;21.24;83.15;98792.64;106409;1257;73844;-73
2023/07/02 04:09:48;;;;;;;10.80;9.70;;;;;;;21.22;83.06;98795.83;106129;1254;70210;-74
2023/07/02 04:12:15;;;;;;;10.90;9.30;;;;;;;21.23;83.16;98796.42;106031;1253;72464;-76
2023/07/02 04:14:42;;;;;;;9.80;8.80;;;;;;;21.34;82.91;98797.77;105815;1257;60518;-73
2023/07/02 04:17:09;;;;;;;10.90;9.80;;;;;;;21.44;82.50;98798.98;106147;1252;60444;-73
2023/07/02 04:19:36;;;;;;;11.30;10.20;;;;;;;21.45;82.31;98797.50;105837;1254;74047;-76
2023/07/02 04:22:03;;;;;;;11.50;10.20;;;;;;;21.45;82.27;98797.83;106129;1257;70093;-78
2023/07/02 04:24:30;;;;;;;11.00;9.50;;;;;;;21.48;82.07;98793.45;105874;1254;72565;-74
2023/07/02 04:26:59;;;;;;;10.30;9.10;;;;;;;21.55;81.91;98795.87;106962;1254;62012;-78
2023/07/02 04:29:46;;;;;;;10.90;10.00;;;;;;;21.64;81.71;98794.88;107575;1252;60402;-78
2023/07/02 04:32:13;;;;;;;10.90;9.90;;;;;;;21.69;81.61;98798.58;109407;1253;71323;-76
2023/07/02 04:34:41;;;;;;;10.10;9.20;;;;;;;21.78;81.32;98796.83;106826;1254;70148;-78
2023/07/02 04:37:08;;;;;;;11.30;9.20;;;;;;;21.89;80.71;98796.92;106526;1254;72707;-80
2023/07/02 04:39:36;;;;;;;9.90;9.00;;;;;;;22.04;80.04;98796.70;106372;1257;60504;-76
2023/07/02 04:42:03;;;;;;;9.50;8.70;;;;;;;22.14;79.30;98792.95;106233;1256;60511;-77
2023/07/02 04:44:30;;;;;;;11.40;10.00;;;;;;;22.20;78.92;98788.77;106122;1257;73553;-78
2023/07/02 04:46:58;;;;;;;10.90;9.50;;;;;;;22.27;79.01;98785.45;106183;1257;70335;-76
2023/07/02 04:49:27;;;;;;;10.10;8.90;;;;;;;22.37;78.44;98791.83;106160;1256;71973;-76
2023/07/02 04:51:54;;;;;;;9.70;8.70;;;;;;;22.47;78.22;98792.42;106182;1251;61932;-74
2023/07/02 04:54:21;;;;;;;9.40;8.60;;;;;;;22.53;77.61;98795.35;106367;1251;60533;-76
2023/07/02 04:56:48;;;;;;;11.20;8.30;;;;;;;22.56;76.99;98791.84;107570;1251;73575;-81
2023/07/02 04:59:15;;;;;;;9.40;8.50;;;;;;;22.61;76.79;98789.25;109040;1251;69181;-81
2023/07/02 05:01:42;;;;;;;10.20;9.10;;;;;;;22.66;76.59;98791.36;109674;1251;72664;-81
2023/07/02 05:04:13;;;;;;;10.50;9.50;;;;;;;22.72;75.93;98790.80;108975;1251;60765;-79
2023/07/02 05:06:40;;;;;;;10.30;8.30;;;;;;;22.87;75.95;98793.73;108187;1251;59294;-78
2023/07/02 05:09:06;;;;;;;10.10;9.20;;;;;;;22.96;75.79;98796.54;108200;1251;73708;-80
2023/07/02 05:11:34;;;;;;;9.40;8.50;;;;;;;23.01;75.34;98795.84;107968;1251;69019;-81
2023/07/02 05:14:00;;;;;;;10.30;9.30;;;;;;;23.03;75.12;98797.10;108292;1251;70198;-78
2023/07/02 05:16:28;;;;;;;10.20;9.10;;;;;;;23.04;75.20;98796.61;106518;1251;60405;-80
2023/07/02 05:18:55;;;;;;;8.70;7.90;;;;;;;23.09;74.96;98795.74;106231;1251;60959;-83
2023/07/02 05:21:22;;;;;;;8.20;7.40;;;;;;;23.18;74.34;98792.48;106410;1251;73644;-80
2023/07/02 05:23:49;;;;;;;8.90;8.10;;;;;;;23.25;73.95;98791.81;106193;1251;70127;-79
2023/07/02 05:26:16;;;;;;;7.70;6.90;;;;;;;23.37;73.50;98786.47;106348;1254;73107;-84
2023/07/02 05:28:44;;;;;;;8.20;7.50;;;;;;;23.49;72.18;98790.88;107441;1256;60441;-80
2023/07/02 05:31:12;;;;;;;8.60;7.80;;;;;;;23.52;71.86;98791.34;109665;1251;59346;-82
2023/07/02 05:33:41;;;;;;;8.30;7.50;;;;;;;23.57;71.62;98785.38;107348;1257;72667;-81
2023/07/02 05:36:08;;;;;;;7.80;7.00;;;;;;;23.58;71.01;98779.08;106370;1254;70401;-82
2023/07/02 05:38:35;;;;;;;8.20;7.40;;;;;;;23.55;70.92;98782.56;106017;1254;73145;-79
2023/07/02 05:41:03;;;;;;;9.00;7.30;;;;;;;23.54;70.58;98777.35;106768;1251;61083;-81
2023/07/02 05:43:30;;;;;;;7.00;6.40;;;;;;;23.57;70.17;98775.61;107125;1251;60523;-78
2023/07/02 05:46:00;;;;;;;7.60;6.90;;;;;;;23.60;69.95;98776.08;106790;1256;73829;-80
2023/07/02 05:48:27;;;;;;;7.60;6.80;;;;;;;23.64;70.09;98775.48;107230;1254;69052;-80
2023/07/02 05:50:57;;;;;;;8.20;7.50;;;;;;;23.70;69.45;98773.02;107712;1251;72470;-77
2023/07/02 05:53:24;;;;;;;8.10;7.30;;;;;;;23.78;69.11;98769.79;107859;1251;60466;-80
2023/07/02 05:55:51;;;;;;;9.30;7.40;;;;;;;23.86;68.83;98768.14;107966;1251;59774;-78
2023/07/02 05:58:18;;;;;;;7.90;7.10;;;;;;;23.96;68.05;98767.77;109248;1251;72538;-80
2023/07/02 06:00:49;;;;;;;7.90;7.10;;;;;;;24.05;67.50;98772.22;109359;1251;69057;-72
2023/07/02 06:03:20;;;;;;;9.00;6.50;;;;;;;24.09;67.41;98770.98;107062;1256;71804;-72
2023/07/02 06:05:48;;;;;;;8.00;6.80;;;;;;;24.12;67.26;98765.33;105791;1256;60501;-72
2023/07/02 06:08:16;;;;;;;7.20;6.60;;;;;;;24.20;66.94;98770.66;108368;1251;60304;-73
2023/07/02 06:10:47;;;;;;;7.40;6.30;;;;;;;24.24;66.22;98771.34;108417;1251;72629;-71
2023/07/02 06:13:14;;;;;;;8.90;6.70;;;;;;;24.28;66.49;98772.06;108773;1251;70873;-74
2023/07/02 06:15:45;;;;;;;7.40;6.30;;;;;;;24.36;66.17;98771.14;108949;1251;71746;-72
2023/07/02 06:18:11;;;;;;;7.20;6.50;;;;;;;24.43;65.94;98771.25;108473;1251;59064;-71
2023/07/02 06:20:39;;;;;;;8.40;6.70;;;;;;;24.48;65.17;98765.29;108167;1251;62175;-71
2023/07/02 06:23:06;;;;;;;6.90;6.20;;;;;;;24.51;65.04;98763.56;108065;1251;74389;-72
2023/07/02 06:25:33;;;;;;;7.00;6.40;;;;;;;24.56;65.07;98765.48;107375;1251;70600;-71
2023/07/02 06:28:00;;;;;;;7.50;6.60;;;;;;;24.62;65.34;98764.45;107144;1251;71790;-74
2023/07/02 06:30:27;;;;;;;6.90;6.30;;;;;;;24.72;65.16;98764.27;108171;1252;60326;-74
2023/07/02 06:32:54;;;;;;;7.30;6.60;;;;;;;24.81;64.80;98764.18;108790;1252;60243;-73
2023/07/02 06:35:21;;;;;;;6.80;6.30;;;;;;;24.91;64.18;98763.54;108537;1251;73238;-72
2023/07/02 06:37:48;;;;;;;7.30;6.60;;;;;;;25.03;63.54;98770.17;106155;1251;70275;-77
2023/07/02 06:40:15;;;;;;;7.50;6.80;;;;;;;25.07;62.94;98764.64;106405;1251;72657;-75
2023/07/02 06:42:42;;;;;;;8.70;7.60;;;;;;;25.05;62.30;98760.52;105803;1251;60948;-74
2023/07/02 06:45:09;;;;;;;9.20;8.30;;;;;;;25.06;62.41;98762.25;106090;1251;60520;-77
2023/07/02 06:47:36;;;;;;;9.50;8.50;;;;;;;25.13;61.53;98760.88;105644;1256;73048;-74
2023/07/02 06:50:03;;;;;;;8.90;8.10;;;;;;;25.19;61.13;98764.73;106642;1252;70675;-76
2023/07/02 06:52:31;;;;;;;10.10;8.60;;;;;;;25.23;60.86;98762.16;106068;1251;72715;-76
2023/07/02 06:54:57;;;;;;;9.20;8.40;;;;;;;25.29;60.96;98758.13;105733;1254;60504;-77
2023/07/02 06:57:25;;;;;;;10.50;9.50;;;;;;;25.36;60.22;98762.83;106235;1251;60715;-74
2023/07/02 06:59:51;;;;;;;10.00;8.50;;;;;;;25.37;59.04;98765.44;107556;1251;73812;-74
2023/07/02 07:02:18;;;;;;;12.20;9.40;;;;;;;25.30;59.22;98762.03;108512;1251;69442;-76
2023/07/02 07:04:45;;;;;;;9.30;8.40;;;;;;;25.29;60.01;98767.31;105957;1251;73062;-75
2023/07/02 07:07:12;;;;;;;10.70;8.90;;;;;;;25.35;59.97;98764.86;106190;1251;60476;-74
2023/07/02 07:09:39;;;;;;;12.20;9.30;;;;;;;25.40;59.98;98769.80;106200;1251;60533;-74
2023/07/02 07:12:06;;;;;;;11.00;9.90;;;;;;;25.43;60.26;98769.23;106414;1256;73972;-76
2023/07/02 07:14:33;;;;;;;11.10;10.00;;;;;;;25.45;60.36;98761.31;106307;1251;70220;-75
2023/07/02 07:16:59;;;;;;;10.10;9.10;;;;;;;25.53;60.73;98759.96;106610;1253;72432;-76
2023/07/02 07:19:26;;;;;;;7.70;7.00;;;;;;;25.63;60.02;98758.21;106622;1251;60506;-75
2023/07/02 07:21:53;;;;;;;8.40;7.70;;;;;;;25.71;59.06;98751.15;105816;1252;205212;-74
2023/07/02 07:26:38;;;;;;;7.80;6.90;;;;;;;25.81;58.60;98747.44;102511;1293;599544;-77
2023/07/02 07:29:06;;;;;;;8.40;7.50;;;;;;;25.82;58.12;98747.73;105567;1268;59897;-74
2023/07/02 07:31:33;;;;;;;9.30;8.20;;;;;;;25.85;57.72;98746.34;108103;1267;60357;-76
2023/07/02 07:34:01;;;;;;;7.90;7.10;;;;;;;25.85;58.09;98745.69;107384;1267;70978;-76
2023/07/02 07:36:28;;;;;;;7.90;7.20;;;;;;;25.87;58.15;98743.31;105085;1267;69959;-74
2023/07/02 07:38:56;;;;;;;8.80;7.40;;;;;;;25.90;58.07;98742.24;105256;1267;72683;-79
2023/07/02 07:41:26;;;;;;;8.70;7.50;;;;;;;25.92;58.08;98736.36;105272;1261;183206;-75
2023/07/02 07:43:53;;;;;;;10.20;7.00;;;;;;;25.98;58.75;98737.11;105596;1263;60094;-77
2023/07/02 07:46:21;;;;;;;8.30;6.90;;;;;;;26.09;58.73;98735.86;105938;1265;71494;-75
2023/07/02 07:48:51;;;;;;;6.60;6.00;;;;;;;26.18;57.46;98740.46;105752;1265;70175;-76
2023/07/02 07:51:19;;;;;;;6.70;5.60;;;;;;;26.23;56.60;98737.83;105562;1262;71496;-75
2023/07/02 07:53:46;;;;;;;6.90;6.00;;;;;;;26.27;56.27;98736.46;105612;1260;59789;-76
2023/07/02 07:56:14;;;;;;;6.10;5.60;;;;;;;26.34;55.92;98733.99;105512;1260;60149;-77
2023/07/02 07:58:41;;;;;;;5.60;5.10;;;;;;;26.42;55.70;98737.52;106409;1254;72232;-77
2023/07/02 08:01:09;;;;;;;7.40;5.40;;;;;;;26.49;55.11;98735.12;107780;1253;69142;-77
2023/07/02 08:03:39;;;;;;;9.40;8.10;;;;;;;26.56;55.21;98735.28;108137;1254;71343;-77
2023/07/02 08:06:08;;;;;;;8.50;7.70;;;;;;;26.59;55.44;98731.12;106437;1256;60983;-74
2023/07/02 08:08:36;;;;;;;10.60;8.10;;;;;;;26.60;55.51;98731.66;106251;1255;60011;-76
2023/07/02 08:11:04;;;;;;;10.30;7.60;;;;;;;26.65;55.71;98723.88;106425;1258;75018;-74
2023/07/02 08:13:32;;;;;;;8.40;7.60;;;;;;;26.78;55.65;98724.79;106137;1256;70187;-74
2023/07/02 08:15:59;;;;;;;8.00;7.20;;;;;;;26.96;55.60;98726.13;105943;1255;72936;-79
2023/07/02 08:18:27;;;;;;;6.70;6.10;;;;;;;27.13;55.39;98728.19;106232;1256;59749;-74
2023/07/02 08:20:54;;;;;;;7.40;6.70;;;;;;;27.29;54.51;98719.23;106141;1255;59491;-75
2023/07/02 08:23:22;;;;;;;6.40;5.80;;;;;;;27.46;53.98;98717.05;105667;1254;73113;-79
2023/07/02 08:25:49;;;;;;;6.70;6.10;;;;;;;27.59;54.20;98720.84;105981;1256;68711;-76
2023/07/02 08:28:17;;;;;;;6.20;5.70;;;;;;;27.70;53.77;98724.37;105911;1256;72699;-77
2023/07/02 08:30:44;;;;;;;8.00;5.90;;;;;;;27.75;53.13;98718.55;106596;1254;59795;-77
2023/07/02 08:33:12;;;;;;;6.80;6.10;;;;;;;27.73;53.31;98720.16;108910;1254;58631;-77
2023/07/02 08:35:39;;;;;;;7.50;5.70;;;;;;;27.75;53.07;98715.31;106234;1256;73061;-75
2023/07/02 08:38:08;;;;;;;7.80;5.90;;;;;;;27.78;52.81;98712.48;106067;1256;69013;-76
2023/07/02 08:40:36;;;;;;;7.90;6.30;;;;;;;27.79;52.84;98714.30;105915;1259;72024;-76
2023/07/02 08:43:03;;;;;;;7.00;6.00;;;;;;;27.79;51.91;98720.87;105898;1256;61615;-76
2023/07/02 08:45:31;;;;;;;5.90;5.30;;;;;;;27.74;51.48;98717.31;105865;1256;60158;-75
2023/07/02 08:47:58;;;;;;;6.90;6.10;;;;;;;27.71;51.81;98717.16;105828;1255;73648;-76
2023/07/02 08:50:26;;;;;;;7.10;6.40;;;;;;;27.75;51.76;98719.90;105497;1256;69266;-77
2023/07/02 08:52:54;;;;;;;6.80;6.10;;;;;;;27.80;51.88;98714.46;105731;1256;71697;-76
2023/07/02 08:55:22;;;;;;;8.00;5.50;;;;;;;27.91;51.95;98717.44;105807;1256;60425;-78
2023/07/02 08:57:53;;;;;;;5.90;5.30;;;;;;;27.98;50.94;98719.42;105443;1258;59573;-74
2023/07/02 09:00:21;;;;;;;6.70;6.10;;;;;;;28.04;51.07;98704.80;106004;1258;73547;-72
2023/07/02 09:02:49;;;;;;;5.90;5.30;;;;;;;28.26;50.71;98710.40;107060;1253;69065;-75
2023/07/02 09:05:17;;;;;;;6.70;5.40;;;;;;;28.56;50.57;98709.61;108118;1254;71969;-75
2023/07/02 09:07:49;;;;;;;6.00;5.00;;;;;;;28.87;49.39;98720.53;105698;1256;60340;-76
2023/07/02 09:10:28;;;;;;;5.80;5.30;;;;;;;29.07;47.91;98722.78;105955;1259;59657;-75
2023/07/02 09:13:09;;;;;;;6.10;4.70;;;;;;;29.14;48.03;98720.22;105734;1261;73749;-76
2023/07/02 09:15:40;;;;;;;6.10;5.50;;;;;;;29.35;47.65;98712.41;105803;1258;69044;-74
2023/07/02 09:18:34;;;;;;;5.80;5.10;;;;;;;29.58;47.34;98708.52;105750;1259;73436;-74
2023/07/02 09:21:01;;;;;;;6.00;5.30;;;;;;;29.82;47.35;98706.98;105838;1256;59607;-74
2023/07/02 09:23:35;;;;;;;5.50;5.00;;;;;;;30.14;46.55;98704.81;105861;1256;59672;-75
2023/07/02 09:26:03;;;;;;;6.20;5.40;;;;;;;30.53;45.96;98712.42;105892;1254;71785;-75
2023/07/02 09:28:30;;;;;;;6.40;5.00;;;;;;;30.86;45.13;98717.17;105859;1258;69037;-77
2023/07/02 09:30:58;;;;;;;6.00;5.10;;;;;;;31.13;44.76;98704.34;106424;1256;71061;-74
2023/07/02 09:33:28;;;;;;;8.70;5.70;;;;;;;31.39;44.29;98706.66;107989;1256;59261;-75
2023/07/02 09:35:57;;;;;;;5.70;5.20;;;;;;;31.80;43.88;98704.55;107137;1256;59227;-73
2023/07/02 09:38:24;;;;;;;6.10;5.10;;;;;;;32.24;42.35;98706.67;105804;1261;73072;-76
2023/07/02 09:40:52;;;;;;;6.20;5.40;;;;;;;32.51;42.02;98696.58;105844;1254;69483;-77
2023/07/02 09:43:21;;;;;;;5.00;4.60;;;;;;;32.79;41.72;98688.27;105840;1256;72440;-78
2023/07/02 09:45:50;;;;;;;4.40;4.00;;;;;;;33.23;41.41;98690.73;106053;1254;60074;-75
2023/07/02 09:48:18;;;;;;;4.80;4.30;;;;;;;33.65;40.00;98691.58;106452;1255;59699;-76
2023/07/02 09:50:47;;;;;;;5.20;4.50;;;;;;;33.64;39.24;98695.08;106167;1261;73694;-73
2023/07/02 09:53:15;;;;;;;4.60;4.20;;;;;;;33.59;40.00;98687.00;105842;1261;71537;-75
2023/07/02 09:55:43;;;;;;;5.30;3.90;;;;;;;33.79;39.56;98682.95;105849;1256;73128;-75
2023/07/02 09:58:14;;;;;;;4.60;4.20;;;;;;;33.99;38.88;98679.10;105813;1255;59730;-74
2023/07/02 10:00:42;;;;;;;4.30;3.90;;;;;;;34.12;38.88;98676.71;106170;1261;59544;-77
2023/07/02 10:03:09;;;;;;;4.60;4.20;;;;;;;34.23;38.74;98673.66;107670;1256;73654;-74
2023/07/02 10:05:36;;;;;;;4.10;3.80;;;;;;;34.36;38.58;98668.97;105726;1254;69229;-74
2023/07/02 10:08:17;;;;;;;4.60;4.20;;;;;;;34.55;38.71;98668.52;105785;1254;72746;-79
2023/07/02 10:10:45;;;;;;;4.60;4.20;;;;;;;34.64;38.11;98669.48;105805;1254;59774;-77
2023/07/02 10:13:14;;;;;;;4.70;4.10;;;;;;;34.62;38.21;98662.80;105844;1256;59714;-75
2023/07/02 10:15:42;;;;;;;4.50;4.20;;;;;;;34.61;38.30;98661.27;106024;1256;64201;-75
2023/07/02 10:18:09;;;;;;;5.10;4.70;;;;;;;34.40;38.70;98654.66;105711;1256;60228;-74
2023/07/02 10:20:39;;;;;;;5.30;4.80;;;;;;;33.98;39.45;98659.80;105732;1259;71894;-77
2023/07/02 10:23:08;;;;;;;5.90;5.10;;;;;;;33.68;40.17;98655.96;105902;1257;60277;-77
2023/07/02 10:25:39;;;;;;;5.00;4.40;;;;;;;33.66;40.09;98657.23;105812;1255;59853;-75
2023/07/02 10:28:22;;;;;;;4.30;3.90;;;;;;;33.74;40.11;98656.66;106322;1258;64295;-74
2023/07/02 10:30:52;;;;;;;4.90;4.50;;;;;;;33.59;39.53;98650.48;108069;1254;69182;-78
2023/07/02 10:33:20;;;;;;;5.40;4.90;;;;;;;33.29;39.93;98647.04;107264;1260;72651;-78
2023/07/02 10:35:49;;;;;;;5.00;4.50;;;;;;;33.03;40.70;98641.11;106398;1259;60145;-77
2023/07/02 10:38:22;;;;;;;5.00;4.50;;;;;;;32.91;40.98;98640.56;105813;1256;60903;-78
2023/07/02 10:41:02;;;;;;;4.80;4.30;;;;;;;32.77;41.35;98639.34;105777;1254;71872;-79
2023/07/02 10:43:30;;;;;;;5.20;4.80;;;;;;;32.50;41.68;98645.48;105736;1256;68784;-77
2023/07/02 10:46:02;;;;;;;4.70;4.30;;;;;;;32.31;41.52;98640.91;105847;1256;72937;-78
2023/07/02 10:48:30;;;;;;;5.60;5.00;;;;;;;31.95;41.83;98633.65;106033;1258;59747;-77
2023/07/02 10:50:58;;;;;;;5.70;5.00;;;;;;;31.64;42.42;98637.54;106145;1258;59734;-78
2023/07/02 10:53:26;;;;;;;6.10;5.10;;;;;;;31.37;42.61;98635.08;106005;1257;73040;-79
2023/07/02 10:55:55;;;;;;;5.60;5.10;;;;;;;31.07;43.34;98634.86;106471;1256;70007;-77
2023/07/02 10:58:24;;;;;;;5.50;5.00;;;;;;;31.07;43.30;98625.52;107491;1258;73517;-79
2023/07/02 11:00:52;;;;;;;6.00;5.10;;;;;;;31.43;43.27;98618.69;108175;1255;59221;-78
2023/07/02 11:03:24;;;;;;;4.80;4.40;;;;;;;32.12;42.84;98614.39;107431;1258;62386;-80
2023/07/02 11:05:52;;;;;;;4.90;4.50;;;;;;;32.84;41.97;98617.33;105990;1256;71592;-78
2023/07/02 11:08:24;;;;;;;4.90;4.50;;;;;;;33.43;40.45;98611.77;106035;1260;69252;-77
2023/07/02 11:11:06;;;;;;;5.90;4.70;;;;;;;33.94;39.93;98602.55;105908;1256;71691;-82
2023/07/02 11:13:34;;;;;;;7.90;6.40;;;;;;;34.48;39.21;98596.66;106159;1256;59728;-80
2023/07/02 11:16:02;;;;;;;5.30;4.80;;;;;;;35.06;38.61;98593.58;106357;1254;59544;-78
2023/07/02 11:18:32;;;;;;;4.80;4.40;;;;;;;35.56;37.64;98585.14;105989;1254;62880;-78
2023/07/02 11:21:09;;;;;;;5.10;4.50;;;;;;;35.97;37.48;98583.11;106063;1261;60255;-77
2023/07/02 11:23:37;;;;;;;5.20;4.60;;;;;;;36.23;36.24;98598.52;107272;1256;62700;-79
2023/07/02 11:26:04;;;;;;;4.60;4.20;;;;;;;36.27;35.65;98595.06;107031;1256;59615;-78
2023/07/02 11:28:34;;;;;;;4.50;4.10;;;;;;;35.97;36.09;98586.84;108239;1254;59052;-80
2023/07/02 11:31:07;;;;;;;4.60;4.30;;;;;;;35.52;36.53;98594.27;108150;1254;63263;-82